createdAt,value
2023-05-05T00:00:37.764Z,12.06
2023-05-05T00:03:41.649Z,12.00
2023-05-05T00:06:44.289Z,11.89
2023-05-05T00:09:47.129Z,11.76
2023-05-05T00:12:50.049Z,11.65
2023-05-05T00:15:53.706Z,11.67
2023-05-05T00:18:56.493Z,11.57
2023-05-05T00:21:59.339Z,11.49
2023-05-05T00:25:01.917Z,11.45
2023-05-05T00:28:05.056Z,11.44
2023-05-05T00:31:07.770Z,11.39
2023-05-05T00:34:11.101Z,11.30
2023-05-05T00:37:14.623Z,11.24
2023-05-05T00:40:18.735Z,11.19
2023-05-05T00:43:21.314Z,11.21
2023-05-05T00:46:26.471Z,11.15
2023-05-05T00:49:29.673Z,11.09
2023-05-05T00:52:32.719Z,11.05
2023-05-05T00:55:35.519Z,11.00
2023-05-05T00:58:42.026Z,10.99
2023-05-05T01:01:45.769Z,10.97
2023-05-05T01:04:48.944Z,10.94
2023-05-05T01:08:10.027Z,10.87
2023-05-05T01:11:44.455Z,10.88
2023-05-05T01:15:07.460Z,10.93
2023-05-05T01:18:23.387Z,10.80
2023-05-05T01:21:33.694Z,10.71
2023-05-05T01:24:45.630Z,10.61
2023-05-05T01:27:52.234Z,10.59
2023-05-05T01:31:01.433Z,10.50
2023-05-05T01:34:07.673Z,10.48
2023-05-05T01:37:18.268Z,10.46
2023-05-05T01:40:26.806Z,10.48
2023-05-05T01:43:33.645Z,10.42
2023-05-05T01:46:37.015Z,10.40
2023-05-05T01:49:42.140Z,10.48
2023-05-05T01:52:46.669Z,10.51
2023-05-05T01:55:50.600Z,10.51
2023-05-05T01:58:55.923Z,10.40
2023-05-05T02:02:02.835Z,10.38
2023-05-05T02:05:06.949Z,10.32
2023-05-05T02:08:11.491Z,10.28
2023-05-05T02:11:16.411Z,10.22
2023-05-05T02:14:21.571Z,10.24
2023-05-05T02:17:26.072Z,10.23
2023-05-05T02:20:31.864Z,10.28
2023-05-05T02:23:36.325Z,10.35
2023-05-05T02:26:40.727Z,10.23
2023-05-05T02:29:54.264Z,10.19
2023-05-05T02:33:05.648Z,10.12
2023-05-05T02:36:17.463Z,10.10
2023-05-05T02:39:30.708Z,10.08
2023-05-05T02:42:40.971Z,10.04
2023-05-05T02:45:45.171Z,9.97
2023-05-05T02:48:48.668Z,9.91
2023-05-05T02:51:51.520Z,9.89
2023-05-05T02:54:54.913Z,10.09
2023-05-05T02:58:05.298Z,10.19
2023-05-05T03:01:17.091Z,10.04
2023-05-05T03:04:31.957Z,9.95
2023-05-05T03:07:40.671Z,9.82
2023-05-05T03:10:48.161Z,9.74
2023-05-05T03:14:01.133Z,9.70
2023-05-05T03:17:05.463Z,9.70
2023-05-05T03:20:11.164Z,9.59
2023-05-05T03:23:14.758Z,9.56
2023-05-05T03:26:18.719Z,9.51
2023-05-05T03:29:22.230Z,9.77
2023-05-05T03:32:25.927Z,9.75
2023-05-05T03:35:28.852Z,9.68
2023-05-05T03:38:31.915Z,9.59
2023-05-05T03:41:34.596Z,9.55
2023-05-05T03:44:38.239Z,9.50
2023-05-05T03:47:41.108Z,9.44
2023-05-05T03:50:46.858Z,9.39
2023-05-05T03:53:49.918Z,9.37
2023-05-05T03:56:52.738Z,9.40
2023-05-05T03:59:55.660Z,9.44
2023-05-05T04:02:58.641Z,9.47
2023-05-05T04:06:01.739Z,9.51
2023-05-05T04:09:05.720Z,9.77
2023-05-05T04:12:08.891Z,9.84
2023-05-05T04:15:11.773Z,10.07
2023-05-05T04:18:15.747Z,10.15
2023-05-05T04:21:18.600Z,10.18
2023-05-05T04:24:24.775Z,10.23
2023-05-05T04:27:30.015Z,10.33
2023-05-05T04:30:33.278Z,10.43
2023-05-05T04:33:36.031Z,10.49
2023-05-05T04:36:39.141Z,10.54
2023-05-05T04:39:42.065Z,10.70
2023-05-05T04:42:45.053Z,10.64
2023-05-05T04:45:54.998Z,10.71
2023-05-05T04:48:59.171Z,10.76
2023-05-05T04:52:01.985Z,10.76
2023-05-05T04:55:05.477Z,10.82
2023-05-05T04:58:08.881Z,10.83
2023-05-05T05:01:11.758Z,10.98
2023-05-05T05:04:18.363Z,11.14
2023-05-05T05:07:21.303Z,11.12
2023-05-05T05:10:23.805Z,11.06
2023-05-05T05:13:26.725Z,11.18
2023-05-05T05:16:29.292Z,11.34
2023-05-05T05:19:32.505Z,11.38
2023-05-05T05:22:38.315Z,11.48
2023-05-05T05:25:42.560Z,11.47
2023-05-05T05:28:45.175Z,11.64
2023-05-05T05:31:48.279Z,11.86
2023-05-05T05:34:51.050Z,11.88
2023-05-05T05:37:53.855Z,12.01
2023-05-05T05:40:56.547Z,12.17
2023-05-05T05:44:00.044Z,12.32
2023-05-05T05:47:03.780Z,12.49
2023-05-05T05:50:07.850Z,12.68
2023-05-05T05:53:11.211Z,12.68
2023-05-05T05:56:14.186Z,12.97
2023-05-05T05:59:16.890Z,13.04
2023-05-05T06:02:21.006Z,13.19
2023-05-05T06:05:24.014Z,13.37
2023-05-05T06:08:26.963Z,13.55
2023-05-05T06:11:30.215Z,13.69
2023-05-05T06:14:32.906Z,13.91
2023-05-05T06:17:35.857Z,13.87
2023-05-05T06:20:38.509Z,13.81
2023-05-05T06:23:42.289Z,14.07
2023-05-05T06:26:45.001Z,14.19
2023-05-05T06:29:47.930Z,14.37
2023-05-05T06:32:50.508Z,14.48
2023-05-05T06:35:53.388Z,14.62
2023-05-05T06:38:56.207Z,14.78
2023-05-05T06:41:59.077Z,14.91
2023-05-05T06:45:02.329Z,15.23
2023-05-05T06:48:05.506Z,15.55
2023-05-05T06:51:09.630Z,15.65
2023-05-05T06:54:12.423Z,15.84
2023-05-05T06:57:14.972Z,15.77
2023-05-05T07:00:18.711Z,16.26
2023-05-05T07:03:21.669Z,16.63
2023-05-05T07:06:24.551Z,16.80
2023-05-05T07:09:27.506Z,17.61
2023-05-05T07:12:33.406Z,18.15
2023-05-05T07:15:36.128Z,19.02
2023-05-05T07:18:39.195Z,19.80
2023-05-05T07:21:41.873Z,20.43
2023-05-05T07:24:45.501Z,21.09
2023-05-05T07:27:48.213Z,21.70
2023-05-05T07:30:52.070Z,22.20
2023-05-05T07:33:54.902Z,21.57
2023-05-05T07:36:57.838Z,21.61
2023-05-05T07:40:00.951Z,21.06
2023-05-05T07:43:04.790Z,22.67
2023-05-05T07:46:07.927Z,22.66
2023-05-05T07:49:11.073Z,23.19
2023-05-05T07:52:13.837Z,23.35
2023-05-05T07:55:16.941Z,23.60
2023-05-05T07:58:19.420Z,25.40
2023-05-05T08:01:22.682Z,24.43
2023-05-05T08:04:25.609Z,24.42
2023-05-05T08:07:28.352Z,25.68
2023-05-05T08:10:31.143Z,24.75
2023-05-05T08:13:34.606Z,26.15
2023-05-05T08:16:37.591Z,26.92
2023-05-05T08:19:40.865Z,26.46
2023-05-05T08:22:43.955Z,27.03
2023-05-05T08:25:46.593Z,27.14
2023-05-05T08:28:49.785Z,26.63
2023-05-05T08:31:52.395Z,27.15
2023-05-05T08:34:55.434Z,27.96
2023-05-05T08:37:59.218Z,26.72
2023-05-05T08:41:02.571Z,26.90
2023-05-05T08:44:05.282Z,27.53
2023-05-05T08:47:11.379Z,28.40
2023-05-05T08:50:14.387Z,27.96
2023-05-05T08:53:21.956Z,28.22
2023-05-05T08:56:37.270Z,25.13
2023-05-05T08:59:41.481Z,26.79
2023-05-05T09:02:46.073Z,27.53
2023-05-05T09:05:49.061Z,27.89
2023-05-05T09:08:51.897Z,28.61
2023-05-05T09:11:57.500Z,29.45
2023-05-05T09:15:03.633Z,29.33
2023-05-05T09:18:12.007Z,28.26
2023-05-05T09:21:22.213Z,29.84
2023-05-05T09:24:25.588Z,30.67
2023-05-05T09:27:28.397Z,30.15
2023-05-05T09:30:31.454Z,28.05
2023-05-05T09:33:34.178Z,30.16
2023-05-05T09:36:48.076Z,30.60
2023-05-05T09:39:55.534Z,30.10
2023-05-05T09:43:02.572Z,32.41
2023-05-05T09:46:07.510Z,31.32
2023-05-05T09:49:18.219Z,28.40
2023-05-05T09:52:24.801Z,28.27
2023-05-05T09:55:33.767Z,32.38
2023-05-05T09:58:36.648Z,30.76
2023-05-05T10:01:39.771Z,30.68
2023-05-05T10:04:42.898Z,29.37
2023-05-05T10:07:47.852Z,30.09
2023-05-05T10:10:53.903Z,29.54
2023-05-05T10:13:57.879Z,31.12
2023-05-05T10:17:01.714Z,32.57
2023-05-05T10:20:07.590Z,29.40
2023-05-05T10:23:15.359Z,30.36
2023-05-05T10:26:20.312Z,30.95
2023-05-05T10:29:47.110Z,32.67
2023-05-05T10:33:30.175Z,31.26
2023-05-05T10:36:34.666Z,31.48
2023-05-05T10:39:38.215Z,32.57
2023-05-05T10:42:41.821Z,34.12
2023-05-05T10:45:47.567Z,32.35
2023-05-05T10:49:14.890Z,31.34
2023-05-05T10:52:28.581Z,30.96
2023-05-05T10:56:08.768Z,32.89
2023-05-05T10:59:37.954Z,32.62
2023-05-05T11:02:42.048Z,32.82
2023-05-05T11:06:06.169Z,31.52
2023-05-05T11:09:28.614Z,33.49
2023-05-05T11:12:32.948Z,34.21
2023-05-05T11:15:38.002Z,32.22
2023-05-05T11:18:44.486Z,34.04
2023-05-05T11:22:01.864Z,34.84
2023-05-05T11:25:36.142Z,32.08
2023-05-05T11:28:56.558Z,33.74
2023-05-05T11:32:15.998Z,35.09
2023-05-05T11:35:18.956Z,34.77
2023-05-05T11:38:45.399Z,34.02
2023-05-05T11:42:08.118Z,34.17
2023-05-05T11:45:24.267Z,33.17
2023-05-05T11:48:27.936Z,32.22
2023-05-05T11:51:31.395Z,33.18
2023-05-05T11:54:49.099Z,34.14
2023-05-05T11:57:52.105Z,33.50
2023-05-05T12:00:55.280Z,34.83
2023-05-05T12:04:00.938Z,34.94
2023-05-05T12:07:03.821Z,34.93
2023-05-05T12:10:07.303Z,37.32
2023-05-05T12:13:19.610Z,35.29
2023-05-05T12:16:22.725Z,33.74
2023-05-05T12:19:30.120Z,36.82
2023-05-05T12:22:33.079Z,35.47
2023-05-05T12:25:38.087Z,36.05
2023-05-05T12:28:46.591Z,36.99
2023-05-05T12:31:49.322Z,37.16
2023-05-05T12:34:54.498Z,37.77
2023-05-05T12:37:58.368Z,34.84
2023-05-05T12:41:01.198Z,33.76
2023-05-05T12:44:04.376Z,34.31
2023-05-05T12:47:07.509Z,34.59
2023-05-05T12:50:10.564Z,35.85
2023-05-05T12:53:21.938Z,34.93
2023-05-05T12:56:31.335Z,34.24
2023-05-05T12:59:34.948Z,35.57
2023-05-05T13:02:37.537Z,36.12
2023-05-05T13:05:41.215Z,38.20
2023-05-05T13:08:43.967Z,36.79
2023-05-05T13:11:47.080Z,37.32
2023-05-05T13:14:49.885Z,33.24
2023-05-05T13:18:02.781Z,32.95
2023-05-05T13:21:05.546Z,32.60
2023-05-05T13:24:23.701Z,32.46
2023-05-05T13:27:31.481Z,31.45
2023-05-05T13:30:34.353Z,30.81
2023-05-05T13:33:36.972Z,32.40
2023-05-05T13:36:39.865Z,33.30
2023-05-05T13:39:42.793Z,35.55
2023-05-05T13:42:46.261Z,36.16
2023-05-05T13:45:48.934Z,38.33
2023-05-05T13:48:56.038Z,39.00
2023-05-05T13:51:59.360Z,36.29
2023-05-05T13:55:02.778Z,38.15
2023-05-05T13:58:05.401Z,37.97
2023-05-05T14:01:08.325Z,36.71
2023-05-05T14:04:11.460Z,39.32
2023-05-05T14:07:14.125Z,39.08
2023-05-05T14:10:16.878Z,36.80
2023-05-05T14:13:19.518Z,33.14
2023-05-05T14:16:22.716Z,36.81
2023-05-05T14:19:28.393Z,37.91
2023-05-05T14:22:33.258Z,37.84
2023-05-05T14:25:36.142Z,35.18
2023-05-05T14:28:39.126Z,31.41
2023-05-05T14:31:41.871Z,28.80
2023-05-05T14:34:45.286Z,26.18
2023-05-05T14:37:48.099Z,25.76
2023-05-05T14:40:51.150Z,25.91
2023-05-05T14:43:53.875Z,25.92
2023-05-05T14:46:57.301Z,25.19
2023-05-05T14:50:00.257Z,25.13
2023-05-05T14:53:03.324Z,25.63
2023-05-05T14:56:06.932Z,25.43
2023-05-05T14:59:10.185Z,25.89
2023-05-05T15:02:16.174Z,25.93
2023-05-05T15:05:19.188Z,28.72
2023-05-05T15:08:22.149Z,29.20
2023-05-05T15:11:25.065Z,27.98
2023-05-05T15:14:30.135Z,26.58
2023-05-05T15:17:37.692Z,26.48
2023-05-05T15:20:40.368Z,28.55
2023-05-05T15:23:43.460Z,30.58
2023-05-05T15:26:46.198Z,30.01
2023-05-05T15:29:49.395Z,26.78
2023-05-05T15:32:52.090Z,25.18
2023-05-05T15:35:54.946Z,24.86
2023-05-05T15:38:57.460Z,24.35
2023-05-05T15:42:03.674Z,24.09
2023-05-05T15:45:08.204Z,24.02
2023-05-05T15:48:11.138Z,23.83
2023-05-05T15:51:13.881Z,23.72
2023-05-05T15:54:16.964Z,23.62
2023-05-05T15:57:19.552Z,23.23
2023-05-05T16:00:22.791Z,23.34
2023-05-05T16:03:25.656Z,23.60
2023-05-05T16:06:28.450Z,24.38
2023-05-05T16:09:31.567Z,25.48
2023-05-05T16:12:34.112Z,25.94
2023-05-05T16:15:36.972Z,27.79
2023-05-05T16:18:39.870Z,27.77
2023-05-05T16:21:43.165Z,27.16
2023-05-05T16:24:45.905Z,28.77
2023-05-05T16:27:48.837Z,28.97
2023-05-05T16:30:51.455Z,28.31
2023-05-05T16:33:54.271Z,28.57
2023-05-05T16:36:56.895Z,29.61
2023-05-05T16:40:01.342Z,30.22
2023-05-05T16:43:04.359Z,29.33
2023-05-05T16:46:07.323Z,29.53
2023-05-05T16:49:10.056Z,26.91
2023-05-05T16:52:13.248Z,24.35
2023-05-05T16:55:15.977Z,23.38
2023-05-05T16:58:28.199Z,22.85
2023-05-05T17:01:32.712Z,22.39
2023-05-05T17:04:35.879Z,22.10
2023-05-05T17:07:38.450Z,21.84
2023-05-05T17:10:42.371Z,21.57
2023-05-05T17:13:44.894Z,21.32
2023-05-05T17:16:47.742Z,21.09
2023-05-05T17:19:50.295Z,20.89
2023-05-05T17:22:53.173Z,20.72
2023-05-05T17:25:55.792Z,20.45
2023-05-05T17:28:58.643Z,20.30
2023-05-05T17:32:01.577Z,20.13
2023-05-05T17:35:04.696Z,19.93
2023-05-05T17:38:07.292Z,19.70
2023-05-05T17:41:10.220Z,19.55
2023-05-05T17:44:13.119Z,19.43
2023-05-05T17:47:15.974Z,19.26
2023-05-05T17:50:18.852Z,19.06
2023-05-05T17:53:22.465Z,18.95
2023-05-05T17:56:25.792Z,18.80
2023-05-05T17:59:28.711Z,18.65
2023-05-05T18:02:31.525Z,18.55
2023-05-05T18:05:35.309Z,18.41
2023-05-05T18:08:38.276Z,18.32
2023-05-05T18:11:42.183Z,18.22
2023-05-05T18:14:44.807Z,18.09
2023-05-05T18:17:47.613Z,18.01
2023-05-05T18:20:50.166Z,17.89
2023-05-05T18:23:57.328Z,17.79
2023-05-05T18:27:07.496Z,17.70
2023-05-05T18:30:11.058Z,17.62
2023-05-05T18:33:13.640Z,17.55
2023-05-05T18:36:16.651Z,17.49
2023-05-05T18:39:19.216Z,17.44
2023-05-05T18:42:22.539Z,17.31
2023-05-05T18:45:25.309Z,17.33
2023-05-05T18:48:29.235Z,17.58
2023-05-05T18:51:32.350Z,17.73
2023-05-05T18:54:37.478Z,17.69
2023-05-05T18:57:43.441Z,17.54
2023-05-05T19:00:46.361Z,17.36
2023-05-05T19:03:49.814Z,17.36
2023-05-05T19:06:52.846Z,17.36
2023-05-05T19:09:55.545Z,17.29
2023-05-05T19:12:59.119Z,17.15
2023-05-05T19:16:02.567Z,17.01
2023-05-05T19:19:05.588Z,16.87
2023-05-05T19:22:08.133Z,16.77
2023-05-05T19:25:11.434Z,16.71
2023-05-05T19:28:14.327Z,16.67
2023-05-05T19:31:17.126Z,16.61
2023-05-05T19:34:20.121Z,16.48
2023-05-05T19:37:23.650Z,16.40
2023-05-05T19:40:26.128Z,16.32
2023-05-05T19:43:29.198Z,16.21
2023-05-05T19:46:32.195Z,16.08
2023-05-05T19:49:36.236Z,15.99
2023-05-05T19:52:41.328Z,15.95
2023-05-05T19:55:44.479Z,16.05
2023-05-05T19:59:00.771Z,16.03
2023-05-05T20:02:03.931Z,15.86
2023-05-05T20:05:07.093Z,15.75
2023-05-05T20:08:09.649Z,15.62
2023-05-05T20:11:14.494Z,15.56
2023-05-05T20:14:17.141Z,15.51
2023-05-05T20:17:21.410Z,15.45
2023-05-05T20:20:25.417Z,15.35
2023-05-05T20:23:29.007Z,15.33
2023-05-05T20:26:31.857Z,15.30
2023-05-05T20:29:34.724Z,15.27
2023-05-05T20:32:37.306Z,15.17
2023-05-05T20:35:40.399Z,15.07
2023-05-05T20:38:43.533Z,15.08
2023-05-05T20:41:46.694Z,15.01
2023-05-05T20:44:49.600Z,14.91
2023-05-05T20:47:52.468Z,14.81
2023-05-05T20:50:55.516Z,14.72
2023-05-05T20:53:59.217Z,14.66
2023-05-05T20:57:06.859Z,14.60
2023-05-05T21:00:10.420Z,14.51
2023-05-05T21:03:13.626Z,14.46
2023-05-05T21:06:17.283Z,14.39
2023-05-05T21:09:21.538Z,14.33
2023-05-05T21:12:24.383Z,14.23
2023-05-05T21:15:27.197Z,14.17
2023-05-05T21:18:30.118Z,14.09
2023-05-05T21:21:33.056Z,14.03
2023-05-05T21:24:38.388Z,13.99
2023-05-05T21:27:41.229Z,13.95
2023-05-05T21:30:45.276Z,13.90
2023-05-05T21:33:50.930Z,13.85
2023-05-05T21:36:53.696Z,13.80
2023-05-05T21:39:56.267Z,13.78
2023-05-05T21:42:59.184Z,13.72
2023-05-05T21:46:05.684Z,13.65
2023-05-05T21:49:13.905Z,13.56
2023-05-05T21:52:17.101Z,13.50
2023-05-05T21:55:20.150Z,13.41
2023-05-05T21:58:24.767Z,13.34
2023-05-05T22:01:28.308Z,13.40
2023-05-05T22:04:31.272Z,13.46
2023-05-05T22:07:33.849Z,13.51
2023-05-05T22:10:36.701Z,13.38
2023-05-05T22:13:39.529Z,13.30
2023-05-05T22:16:42.795Z,13.22
2023-05-05T22:19:45.541Z,13.16
2023-05-05T22:22:48.455Z,13.08
2023-05-05T22:25:50.928Z,13.02
2023-05-05T22:28:53.664Z,12.93
2023-05-05T22:31:56.352Z,12.89
2023-05-05T22:34:59.583Z,12.87
2023-05-05T22:38:02.117Z,12.85
2023-05-05T22:41:06.552Z,12.86
2023-05-05T22:44:09.119Z,12.82
2023-05-05T22:47:13.198Z,12.73
2023-05-05T22:50:15.969Z,12.66
2023-05-05T22:53:19.092Z,12.61
2023-05-05T22:56:21.737Z,12.51
2023-05-05T22:59:25.137Z,12.45
2023-05-05T23:02:28.277Z,12.37
2023-05-05T23:05:31.397Z,12.38
2023-05-05T23:08:33.924Z,12.65
2023-05-05T23:11:37.020Z,12.45
2023-05-05T23:14:39.709Z,12.31
2023-05-05T23:17:42.541Z,12.18
2023-05-05T23:20:45.109Z,12.11
2023-05-05T23:23:48.567Z,12.12
2023-05-05T23:26:51.999Z,12.15
2023-05-05T23:29:54.782Z,12.08
2023-05-05T23:32:57.964Z,12.07
2023-05-05T23:36:01.022Z,11.94
2023-05-05T23:39:03.866Z,11.89
2023-05-05T23:42:06.704Z,11.78
2023-05-05T23:45:10.164Z,11.73
2023-05-05T23:48:13.331Z,11.73
2023-05-05T23:51:16.123Z,11.74
2023-05-05T23:54:18.892Z,11.70
2023-05-05T23:57:22.131Z,11.72
